Etusivu
METAR-TAF:

METAR-TAF

Lentoasemat :

University-Oxford_Airport

Oxford, Mississippi, Yhdysvallat

Leveyspiiri: 34-23-04N, Pituuspiiri: 089-32-08W, korkeus merenpinnasta: 138 m

Tämänhetkinen sää

Tämä raportti tehtiin 23 minuuttia sitten, kello 13.35 UTC
Tuuli 15 kn etelästä/kaakosta puuskistuen 25 kn:hen
Lämpötila 16°C
Kosteus 94%
Ilmanpaine 1009 hPa
Näkyvyys: 9.7 km
Muutamia pilviä 3800 ft:n korkeudessa
Hajanaisia pilviä 6000 ft:n korkeudessa
Hajanaisia pilviä 8000 ft:n korkeudessa
ukkosta näköpiirissä, sadetta

METAR: KUOX 251335Z AUTO 16015G25KT 6SM VCTS RA FEW038 SCT060 SCT080 16/15 A2979 RMK AO2 LTG DSNT SE

Aika: 08:58 (13:58 UTC)


TAF: puuttuu

Säähavainnot ja -ennusteet yli 4000 lentoasemalta (METAR- ja TAF-raportit).

Käytössä olevat sääasemat on merkitty karttaan keltaisilla ja punaisilla pisteillä.

Aseta hiiri pisteen päälle nähdäksesi sääaseman nimen.

Klikkaa sitten nähdäksesi säähavainnot ja -ennusteet.

Kartan vaihtaminen: klikkaa mustalla rastilla varustettuja vihreitä pisteitä, niin voit zoomata sisään; viivalla varustettua vihreää pistettä, niin voit zoomata ulos tai vihreitä nuolia, niin pääset viereisille kartoille.


METAR-TAF: